Gerry Bordelon — WDH6434 — position and weather

sailwx.info

Track history (hours):
 
Tides and Currents Weather Stations Pressure Air Temp Water Temp Dewpoint Dewpoint Depression Visibility Wind Speed Wind Dir Waves Ship Positions

Gerry Bordelon

Owner: Bordelon Marine Inc., Lockport, LA. More information available from US FCC via Universal Licensing System and Coast Guard Vessel Documentation Center.

Last reported at 2018-May-10 18:40 UTC. Time now 2018-May-25 09:17 UTC.
Position N 33°46' W 075°55'.
Warning: this ship's position is 14 days out of date.

Length 49 m; draft 9 m.

MMSI: 367637920.

Date/timePositionNaut miles runAvg speedWind from/ knotsBaromVisibWave heightAir tempDewpointWater temp
2018-May-10 18:40N 33°46' W 075°55'457 9.1
2018-May-08 16:40N 27°01' W 080°01'2 9.3
2018-May-08 16:30N 26°60' W 080°02'5 9.5
2018-May-08 16:00N 26°55' W 080°02'5 9.5
2018-May-08 15:31N 26°50' W 080°01'27 9.0
2018-May-08 12:28N 26°23' W 080°03'5 9.9
2018-May-08 12:00N 26°18' W 080°04'5 9.4
2018-May-08 11:30N 26°14' W 080°05'4 8.5
2018-May-08 11:00N 26°09' W 080°05'4 8.5
2018-May-08 10:30N 26°05' W 080°05'5 9.5
2018-May-08 10:00N 26°01' W 080°05'5 9.0
2018-May-08 09:30N 25°56' W 080°06'4 8.8
2018-May-08 09:00N 25°52' W 080°06'5 9.4
2018-May-08 08:29N 25°47' W 080°05'510.6
2018-May-08 08:00N 25°42' W 080°05'611.2
2018-May-08 07:31N 25°36' W 080°05'611.7
2018-May-08 07:00N 25°30' W 080°06'510.9
2018-May-08 06:30N 25°25' W 080°07'  
Track history (hours):
 
Tides and Currents Weather Stations Pressure Air Temp Water Temp Dewpoint Dewpoint Depression Visibility Wind Speed Wind Dir Waves Ship Positions

Gerry Bordelon

Owner: Bordelon Marine Inc., Lockport, LA. More information available from US FCC via Universal Licensing System and Coast Guard Vessel Documentation Center.

Last reported at 2018-May-10 18:40 UTC. Time now 2018-May-25 09:17 UTC.
Position N 33°46' W 075°55'.
Warning: this ship's position is 14 days out of date.

Length 49 m; draft 9 m.

MMSI: 367637920.

Date/timePositionNaut miles runAvg speedWind from/ knotsBaromVisibWave heightAir tempDewpointWater temp
2018-May-10 18:40N 33°46' W 075°55'457 9.1
2018-May-08 16:40N 27°01' W 080°01'2 9.3
2018-May-08 16:30N 26°60' W 080°02'5 9.5
2018-May-08 16:00N 26°55' W 080°02'5 9.5
2018-May-08 15:31N 26°50' W 080°01'27 9.0
2018-May-08 12:28N 26°23' W 080°03'5 9.9
2018-May-08 12:00N 26°18' W 080°04'5 9.4
2018-May-08 11:30N 26°14' W 080°05'4 8.5
2018-May-08 11:00N 26°09' W 080°05'4 8.5
2018-May-08 10:30N 26°05' W 080°05'5 9.5
2018-May-08 10:00N 26°01' W 080°05'5 9.0
2018-May-08 09:30N 25°56' W 080°06'4 8.8
2018-May-08 09:00N 25°52' W 080°06'5 9.4
2018-May-08 08:29N 25°47' W 080°05'510.6
2018-May-08 08:00N 25°42' W 080°05'611.2
2018-May-08 07:31N 25°36' W 080°05'611.7
2018-May-08 07:00N 25°30' W 080°06'510.9
2018-May-08 06:30N 25°25' W 080°07'  

Dump ship's entire track history